sensor_id;sensor_type;location;lat;lon;timestamp;temperature;humidity
42135;DHT22;28312;43.460;11.810;2023-04-24T00:00:30;14.80;53.40
42135;DHT22;28312;43.460;11.810;2023-04-24T00:04:35;14.80;53.40
42135;DHT22;28312;43.460;11.810;2023-04-24T00:08:38;14.80;53.30
42135;DHT22;28312;43.460;11.810;2023-04-24T00:12:42;14.80;53.40
42135;DHT22;28312;43.460;11.810;2023-04-24T00:16:46;14.80;53.50
42135;DHT22;28312;43.460;11.810;2023-04-24T00:20:49;14.80;53.60
42135;DHT22;28312;43.460;11.810;2023-04-24T00:24:53;14.80;53.80
42135;DHT22;28312;43.460;11.810;2023-04-24T00:28:59;14.70;53.90
42135;DHT22;28312;43.460;11.810;2023-04-24T00:33:03;14.80;53.80
42135;DHT22;28312;43.460;11.810;2023-04-24T00:37:06;14.80;53.80
42135;DHT22;28312;43.460;11.810;2023-04-24T00:41:10;14.80;53.90
42135;DHT22;28312;43.460;11.810;2023-04-24T00:45:14;14.80;53.90
42135;DHT22;28312;43.460;11.810;2023-04-24T00:49:18;14.80;53.90
42135;DHT22;28312;43.460;11.810;2023-04-24T00:53:22;14.80;54.10
42135;DHT22;28312;43.460;11.810;2023-04-24T00:57:26;14.80;54.10
42135;DHT22;28312;43.460;11.810;2023-04-24T01:01:30;14.80;54.10
42135;DHT22;28312;43.460;11.810;2023-04-24T01:05:34;14.80;54.20
42135;DHT22;28312;43.460;11.810;2023-04-24T01:09:41;14.70;54.30
42135;DHT22;28312;43.460;11.810;2023-04-24T01:13:50;14.70;54.50
42135;DHT22;28312;43.460;11.810;2023-04-24T01:17:54;14.70;54.50
42135;DHT22;28312;43.460;11.810;2023-04-24T01:22:02;14.70;54.60
42135;DHT22;28312;43.460;11.810;2023-04-24T01:26:06;14.70;54.60
42135;DHT22;28312;43.460;11.810;2023-04-24T01:30:10;14.80;54.60
42135;DHT22;28312;43.460;11.810;2023-04-24T01:34:17;14.80;54.60
42135;DHT22;28312;43.460;11.810;2023-04-24T01:38:21;14.80;54.60
42135;DHT22;28312;43.460;11.810;2023-04-24T01:42:24;14.80;54.50
42135;DHT22;28312;43.460;11.810;2023-04-24T01:46:28;14.80;54.60
42135;DHT22;28312;43.460;11.810;2023-04-24T01:50:34;14.70;54.90
42135;DHT22;28312;43.460;11.810;2023-04-24T01:54:38;14.70;55.00
42135;DHT22;28312;43.460;11.810;2023-04-24T01:58:43;14.70;55.00
42135;DHT22;28312;43.460;11.810;2023-04-24T02:02:47;14.70;55.10
42135;DHT22;28312;43.460;11.810;2023-04-24T02:06:52;14.80;55.10
42135;DHT22;28312;43.460;11.810;2023-04-24T02:10:55;14.80;55.10
42135;DHT22;28312;43.460;11.810;2023-04-24T02:15:00;14.80;55.10
42135;DHT22;28312;43.460;11.810;2023-04-24T02:19:04;14.80;55.10
42135;DHT22;28312;43.460;11.810;2023-04-24T02:23:08;14.90;55.20
42135;DHT22;28312;43.460;11.810;2023-04-24T02:27:11;14.90;55.20
42135;DHT22;28312;43.460;11.810;2023-04-24T02:31:15;14.80;55.30
42135;DHT22;28312;43.460;11.810;2023-04-24T02:35:19;14.80;55.40
42135;DHT22;28312;43.460;11.810;2023-04-24T02:39:22;14.80;55.70
42135;DHT22;28312;43.460;11.810;2023-04-24T02:43:28;14.70;55.80
42135;DHT22;28312;43.460;11.810;2023-04-24T02:47:31;14.70;55.90
42135;DHT22;28312;43.460;11.810;2023-04-24T02:51:35;14.70;56.10
42135;DHT22;28312;43.460;11.810;2023-04-24T02:55:41;14.70;56.20
42135;DHT22;28312;43.460;11.810;2023-04-24T02:59:47;14.70;56.10
42135;DHT22;28312;43.460;11.810;2023-04-24T03:03:50;14.70;56.20
42135;DHT22;28312;43.460;11.810;2023-04-24T03:07:54;14.60;56.40
42135;DHT22;28312;43.460;11.810;2023-04-24T03:11:58;14.70;56.60
42135;DHT22;28312;43.460;11.810;2023-04-24T03:16:01;14.70;56.90
42135;DHT22;28312;43.460;11.810;2023-04-24T03:20:06;14.70;56.90
42135;DHT22;28312;43.460;11.810;2023-04-24T03:24:12;14.60;57.40
42135;DHT22;28312;43.460;11.810;2023-04-24T03:28:16;14.50;57.50
42135;DHT22;28312;43.460;11.810;2023-04-24T03:32:26;14.50;57.80
42135;DHT22;28312;43.460;11.810;2023-04-24T03:36:29;14.40;58.20
42135;DHT22;28312;43.460;11.810;2023-04-24T03:40:34;14.40;58.40
42135;DHT22;28312;43.460;11.810;2023-04-24T03:44:46;14.40;58.70
42135;DHT22;28312;43.460;11.810;2023-04-24T03:48:50;14.30;59.40
42135;DHT22;28312;43.460;11.810;2023-04-24T03:52:56;14.30;59.90
42135;DHT22;28312;43.460;11.810;2023-04-24T03:57:12;14.30;60.30
42135;DHT22;28312;43.460;11.810;2023-04-24T04:01:26;14.20;60.80
42135;DHT22;28312;43.460;11.810;2023-04-24T04:05:36;14.20;61.30
42135;DHT22;28312;43.460;11.810;2023-04-24T04:09:39;14.20;61.20
42135;DHT22;28312;43.460;11.810;2023-04-24T04:13:43;14.20;61.60
42135;DHT22;28312;43.460;11.810;2023-04-24T04:17:47;14.20;61.90
42135;DHT22;28312;43.460;11.810;2023-04-24T04:21:51;14.20;62.60
42135;DHT22;28312;43.460;11.810;2023-04-24T04:26:06;14.20;62.50
42135;DHT22;28312;43.460;11.810;2023-04-24T04:30:34;14.20;62.20
42135;DHT22;28312;43.460;11.810;2023-04-24T04:34:39;14.20;62.00
42135;DHT22;28312;43.460;11.810;2023-04-24T04:38:46;14.20;62.40
42135;DHT22;28312;43.460;11.810;2023-04-24T04:43:01;14.20;62.50
42135;DHT22;28312;43.460;11.810;2023-04-24T04:47:11;14.30;62.80
42135;DHT22;28312;43.460;11.810;2023-04-24T04:51:15;14.30;63.20
42135;DHT22;28312;43.460;11.810;2023-04-24T04:55:19;14.30;64.30
42135;DHT22;28312;43.460;11.810;2023-04-24T04:59:41;14.30;64.80
42135;DHT22;28312;43.460;11.810;2023-04-24T05:03:53;14.40;64.30
42135;DHT22;28312;43.460;11.810;2023-04-24T05:07:57;14.50;64.50
42135;DHT22;28312;43.460;11.810;2023-04-24T05:12:01;14.50;64.30
42135;DHT22;28312;43.460;11.810;2023-04-24T05:16:12;14.60;64.10
42135;DHT22;28312;43.460;11.810;2023-04-24T05:20:18;14.60;64.20
42135;DHT22;28312;43.460;11.810;2023-04-24T05:24:22;14.60;64.30
42135;DHT22;28312;43.460;11.810;2023-04-24T05:28:45;14.60;64.30
42135;DHT22;28312;43.460;11.810;2023-04-24T05:32:51;14.60;64.70
42135;DHT22;28312;43.460;11.810;2023-04-24T05:36:55;14.60;64.90
42135;DHT22;28312;43.460;11.810;2023-04-24T05:40:59;14.60;64.80
42135;DHT22;28312;43.460;11.810;2023-04-24T05:45:03;14.60;65.00
42135;DHT22;28312;43.460;11.810;2023-04-24T05:49:07;14.70;65.10
42135;DHT22;28312;43.460;11.810;2023-04-24T05:53:11;14.80;65.00
42135;DHT22;28312;43.460;11.810;2023-04-24T05:57:15;14.80;64.90
42135;DHT22;28312;43.460;11.810;2023-04-24T06:01:37;14.80;64.60
42135;DHT22;28312;43.460;11.810;2023-04-24T06:05:47;14.90;64.40
42135;DHT22;28312;43.460;11.810;2023-04-24T06:09:53;14.90;64.40
42135;DHT22;28312;43.460;11.810;2023-04-24T06:13:57;15.00;64.60
42135;DHT22;28312;43.460;11.810;2023-04-24T06:18:33;14.90;64.90
42135;DHT22;28312;43.460;11.810;2023-04-24T06:22:37;15.00;65.20
42135;DHT22;28312;43.460;11.810;2023-04-24T06:26:43;15.00;65.20
42135;DHT22;28312;43.460;11.810;2023-04-24T06:30:46;15.10;65.40
42135;DHT22;28312;43.460;11.810;2023-04-24T06:34:51;15.20;65.40
42135;DHT22;28312;43.460;11.810;2023-04-24T06:38:55;15.20;65.60
42135;DHT22;28312;43.460;11.810;2023-04-24T06:43:01;15.30;65.50
42135;DHT22;28312;43.460;11.810;2023-04-24T06:47:09;15.60;65.80
42135;DHT22;28312;43.460;11.810;2023-04-24T06:51:13;16.00;66.20
42135;DHT22;28312;43.460;11.810;2023-04-24T06:55:16;16.50;65.50
42135;DHT22;28312;43.460;11.810;2023-04-24T06:59:20;16.60;64.70
42135;DHT22;28312;43.460;11.810;2023-04-24T07:03:23;16.70;64.00
42135;DHT22;28312;43.460;11.810;2023-04-24T07:07:27;16.70;63.30
42135;DHT22;28312;43.460;11.810;2023-04-24T07:11:31;16.60;63.20
42135;DHT22;28312;43.460;11.810;2023-04-24T07:15:35;16.60;63.20
42135;DHT22;28312;43.460;11.810;2023-04-24T07:19:38;16.60;63.00
42135;DHT22;28312;43.460;11.810;2023-04-24T07:23:42;16.50;63.10
42135;DHT22;28312;43.460;11.810;2023-04-24T07:27:46;16.40;63.00
42135;DHT22;28312;43.460;11.810;2023-04-24T07:31:50;16.40;63.00
42135;DHT22;28312;43.460;11.810;2023-04-24T07:35:53;16.50;63.60
42135;DHT22;28312;43.460;11.810;2023-04-24T07:39:57;17.10;64.40
42135;DHT22;28312;43.460;11.810;2023-04-24T07:44:01;17.50;63.30
42135;DHT22;28312;43.460;11.810;2023-04-24T07:48:05;17.60;62.40
42135;DHT22;28312;43.460;11.810;2023-04-24T07:52:09;17.50;61.60
42135;DHT22;28312;43.460;11.810;2023-04-24T07:56:12;17.30;61.20
42135;DHT22;28312;43.460;11.810;2023-04-24T08:00:16;16.90;61.50
42135;DHT22;28312;43.460;11.810;2023-04-24T08:04:20;16.50;62.10
42135;DHT22;28312;43.460;11.810;2023-04-24T08:08:24;16.20;62.60
42135;DHT22;28312;43.460;11.810;2023-04-24T08:12:31;16.00;63.80
42135;DHT22;28312;43.460;11.810;2023-04-24T08:16:35;15.90;63.90
42135;DHT22;28312;43.460;11.810;2023-04-24T08:20:38;15.80;63.90
42135;DHT22;28312;43.460;11.810;2023-04-24T08:24:42;15.70;64.00
42135;DHT22;28312;43.460;11.810;2023-04-24T08:28:47;15.90;65.10
42135;DHT22;28312;43.460;11.810;2023-04-24T08:32:50;16.40;65.40
42135;DHT22;28312;43.460;11.810;2023-04-24T08:36:55;17.00;65.50
42135;DHT22;28312;43.460;11.810;2023-04-24T08:40:59;17.50;64.80
42135;DHT22;28312;43.460;11.810;2023-04-24T08:45:03;17.70;64.00
42135;DHT22;28312;43.460;11.810;2023-04-24T08:49:07;17.30;62.90
42135;DHT22;28312;43.460;11.810;2023-04-24T08:53:11;16.80;63.50
42135;DHT22;28312;43.460;11.810;2023-04-24T08:57:15;16.50;64.20
42135;DHT22;28312;43.460;11.810;2023-04-24T09:01:20;16.40;65.00
42135;DHT22;28312;43.460;11.810;2023-04-24T09:05:24;16.50;65.80
42135;DHT22;28312;43.460;11.810;2023-04-24T09:09:32;16.90;66.40
42135;DHT22;28312;43.460;11.810;2023-04-24T09:13:36;17.40;66.20
42135;DHT22;28312;43.460;11.810;2023-04-24T09:17:40;17.90;65.90
42135;DHT22;28312;43.460;11.810;2023-04-24T09:21:46;18.40;65.60
42135;DHT22;28312;43.460;11.810;2023-04-24T09:25:54;19.00;65.30
42135;DHT22;28312;43.460;11.810;2023-04-24T09:29:58;19.50;64.30
42135;DHT22;28312;43.460;11.810;2023-04-24T09:34:05;19.60;63.40
42135;DHT22;28312;43.460;11.810;2023-04-24T09:38:10;19.60;62.70
42135;DHT22;28312;43.460;11.810;2023-04-24T09:42:14;19.40;61.80
42135;DHT22;28312;43.460;11.810;2023-04-24T09:46:18;19.10;61.10
42135;DHT22;28312;43.460;11.810;2023-04-24T09:50:23;19.20;62.60
42135;DHT22;28312;43.460;11.810;2023-04-24T09:54:26;19.20;61.20
42135;DHT22;28312;43.460;11.810;2023-04-24T09:58:30;19.30;61.10
42135;DHT22;28312;43.460;11.810;2023-04-24T10:02:33;19.30;61.20
42135;DHT22;28312;43.460;11.810;2023-04-24T10:06:38;19.40;60.10
42135;DHT22;28312;43.460;11.810;2023-04-24T10:10:43;19.50;60.80
42135;DHT22;28312;43.460;11.810;2023-04-24T10:14:48;19.70;59.90
42135;DHT22;28312;43.460;11.810;2023-04-24T10:18:59;19.50;59.10
42135;DHT22;28312;43.460;11.810;2023-04-24T10:23:03;19.60;59.90
42135;DHT22;28312;43.460;11.810;2023-04-24T10:27:08;19.70;59.80
42135;DHT22;28312;43.460;11.810;2023-04-24T10:31:14;19.90;58.70
42135;DHT22;28312;43.460;11.810;2023-04-24T10:35:19;19.70;58.10
42135;DHT22;28312;43.460;11.810;2023-04-24T10:39:25;19.70;58.80
42135;DHT22;28312;43.460;11.810;2023-04-24T10:43:30;20.00;60.60
42135;DHT22;28312;43.460;11.810;2023-04-24T10:47:40;20.40;60.00
42135;DHT22;28312;43.460;11.810;2023-04-24T10:51:49;21.00;59.00
42135;DHT22;28312;43.460;11.810;2023-04-24T10:56:05;21.10;57.70
42135;DHT22;28312;43.460;11.810;2023-04-24T11:00:29;21.20;57.30
42135;DHT22;28312;43.460;11.810;2023-04-24T11:04:33;21.40;57.60
42135;DHT22;28312;43.460;11.810;2023-04-24T11:08:42;21.60;56.50
42135;DHT22;28312;43.460;11.810;2023-04-24T11:12:48;21.70;56.80
42135;DHT22;28312;43.460;11.810;2023-04-24T11:16:54;21.90;55.90
42135;DHT22;28312;43.460;11.810;2023-04-24T11:21:10;21.80;55.50
42135;DHT22;28312;43.460;11.810;2023-04-24T11:25:15;21.80;55.50
42135;DHT22;28312;43.460;11.810;2023-04-24T11:29:20;21.70;55.10
42135;DHT22;28312;43.460;11.810;2023-04-24T11:33:26;21.50;55.00
42135;DHT22;28312;43.460;11.810;2023-04-24T11:37:50;21.40;55.70
42135;DHT22;28312;43.460;11.810;2023-04-24T11:42:02;21.60;56.10
42135;DHT22;28312;43.460;11.810;2023-04-24T11:46:08;21.60;55.70
42135;DHT22;28312;43.460;11.810;2023-04-24T11:50:16;21.80;55.80
42135;DHT22;28312;43.460;11.810;2023-04-24T11:54:22;22.00;56.30
42135;DHT22;28312;43.460;11.810;2023-04-24T11:58:25;22.20;55.70
42135;DHT22;28312;43.460;11.810;2023-04-24T12:02:30;22.00;54.60
42135;DHT22;28312;43.460;11.810;2023-04-24T12:06:34;21.80;54.40
42135;DHT22;28312;43.460;11.810;2023-04-24T12:10:38;21.70;55.00
42135;DHT22;28312;43.460;11.810;2023-04-24T12:14:49;21.70;55.40
42135;DHT22;28312;43.460;11.810;2023-04-24T12:18:53;22.00;54.80
42135;DHT22;28312;43.460;11.810;2023-04-24T12:22:59;21.80;54.20
42135;DHT22;28312;43.460;11.810;2023-04-24T12:27:02;21.60;53.70
42135;DHT22;28312;43.460;11.810;2023-04-24T12:31:06;21.30;54.60
42135;DHT22;28312;43.460;11.810;2023-04-24T12:35:11;21.40;55.50
42135;DHT22;28312;43.460;11.810;2023-04-24T12:39:18;21.60;55.60
42135;DHT22;28312;43.460;11.810;2023-04-24T12:43:22;22.00;55.50
42135;DHT22;28312;43.460;11.810;2023-04-24T12:47:27;22.20;54.80
42135;DHT22;28312;43.460;11.810;2023-04-24T12:51:31;22.20;54.80
42135;DHT22;28312;43.460;11.810;2023-04-24T12:55:36;22.40;54.30
42135;DHT22;28312;43.460;11.810;2023-04-24T12:59:40;22.60;54.70
42135;DHT22;28312;43.460;11.810;2023-04-24T13:03:44;22.80;54.40
42135;DHT22;28312;43.460;11.810;2023-04-24T13:07:49;23.00;54.10
42135;DHT22;28312;43.460;11.810;2023-04-24T13:11:52;22.90;53.30
42135;DHT22;28312;43.460;11.810;2023-04-24T13:15:56;23.00;53.40
42135;DHT22;28312;43.460;11.810;2023-04-24T13:19:59;23.00;53.10
42135;DHT22;28312;43.460;11.810;2023-04-24T13:24:05;22.80;52.00
42135;DHT22;28312;43.460;11.810;2023-04-24T13:28:10;22.60;52.70
42135;DHT22;28312;43.460;11.810;2023-04-24T13:32:14;22.60;52.80
42135;DHT22;28312;43.460;11.810;2023-04-24T13:36:18;22.80;53.00
42135;DHT22;28312;43.460;11.810;2023-04-24T13:40:22;23.10;52.90
42135;DHT22;28312;43.460;11.810;2023-04-24T13:44:25;23.20;52.00
42135;DHT22;28312;43.460;11.810;2023-04-24T13:48:29;23.20;52.00
42135;DHT22;28312;43.460;11.810;2023-04-24T13:52:33;23.20;51.70
42135;DHT22;28312;43.460;11.810;2023-04-24T13:56:36;23.20;52.00
42135;DHT22;28312;43.460;11.810;2023-04-24T14:00:40;23.30;51.60
42135;DHT22;28312;43.460;11.810;2023-04-24T14:04:43;23.20;51.80
42135;DHT22;28312;43.460;11.810;2023-04-24T14:08:48;23.40;51.70
42135;DHT22;28312;43.460;11.810;2023-04-24T14:12:53;23.30;51.70
42135;DHT22;28312;43.460;11.810;2023-04-24T14:16:57;23.50;51.90
42135;DHT22;28312;43.460;11.810;2023-04-24T14:21:00;23.60;51.50
42135;DHT22;28312;43.460;11.810;2023-04-24T14:25:05;23.70;51.60
42135;DHT22;28312;43.460;11.810;2023-04-24T14:29:09;24.00;51.60
42135;DHT22;28312;43.460;11.810;2023-04-24T14:33:17;23.90;50.50
42135;DHT22;28312;43.460;11.810;2023-04-24T14:37:21;23.80;50.40
42135;DHT22;28312;43.460;11.810;2023-04-24T14:41:24;23.60;50.00
42135;DHT22;28312;43.460;11.810;2023-04-24T14:45:28;23.50;50.20
42135;DHT22;28312;43.460;11.810;2023-04-24T14:49:32;23.10;49.60
42135;DHT22;28312;43.460;11.810;2023-04-24T14:53:36;22.80;49.50
42135;DHT22;28312;43.460;11.810;2023-04-24T14:57:39;22.50;49.80
42135;DHT22;28312;43.460;11.810;2023-04-24T15:01:43;22.30;50.60
42135;DHT22;28312;43.460;11.810;2023-04-24T15:05:46;22.40;50.90
42135;DHT22;28312;43.460;11.810;2023-04-24T15:09:50;22.20;50.50
42135;DHT22;28312;43.460;11.810;2023-04-24T15:13:54;22.00;50.20
42135;DHT22;28312;43.460;11.810;2023-04-24T15:17:57;21.70;50.30
42135;DHT22;28312;43.460;11.810;2023-04-24T15:22:01;21.60;50.90
42135;DHT22;28312;43.460;11.810;2023-04-24T15:26:05;21.70;51.40
42135;DHT22;28312;43.460;11.810;2023-04-24T15:30:09;21.70;51.20
42135;DHT22;28312;43.460;11.810;2023-04-24T15:34:13;21.50;50.80
42135;DHT22;28312;43.460;11.810;2023-04-24T15:38:17;21.20;50.50
42135;DHT22;28312;43.460;11.810;2023-04-24T15:42:20;20.90;50.90
42135;DHT22;28312;43.460;11.810;2023-04-24T15:46:24;20.70;51.70
42135;DHT22;28312;43.460;11.810;2023-04-24T15:50:29;20.70;52.20
42135;DHT22;28312;43.460;11.810;2023-04-24T15:54:33;20.80;52.10
42135;DHT22;28312;43.460;11.810;2023-04-24T15:58:36;20.80;51.90
42135;DHT22;28312;43.460;11.810;2023-04-24T16:02:40;20.80;52.10
42135;DHT22;28312;43.460;11.810;2023-04-24T16:06:46;20.80;52.10
42135;DHT22;28312;43.460;11.810;2023-04-24T16:10:50;20.90;52.10
42135;DHT22;28312;43.460;11.810;2023-04-24T16:14:54;21.10;52.00
42135;DHT22;28312;43.460;11.810;2023-04-24T16:18:58;21.20;51.70
42135;DHT22;28312;43.460;11.810;2023-04-24T16:23:02;21.10;51.60
42135;DHT22;28312;43.460;11.810;2023-04-24T16:27:06;21.00;51.40
42135;DHT22;28312;43.460;11.810;2023-04-24T16:31:13;20.80;51.40
42135;DHT22;28312;43.460;11.810;2023-04-24T16:35:16;20.60;51.40
42135;DHT22;28312;43.460;11.810;2023-04-24T16:39:20;20.30;51.50
42135;DHT22;28312;43.460;11.810;2023-04-24T16:43:25;20.10;51.60
42135;DHT22;28312;43.460;11.810;2023-04-24T16:47:29;19.90;51.60
42135;DHT22;28312;43.460;11.810;2023-04-24T16:51:33;19.70;51.60
42135;DHT22;28312;43.460;11.810;2023-04-24T16:55:37;19.60;51.80
42135;DHT22;28312;43.460;11.810;2023-04-24T16:59:41;19.50;51.80
42135;DHT22;28312;43.460;11.810;2023-04-24T17:03:45;19.30;51.90
42135;DHT22;28312;43.460;11.810;2023-04-24T17:07:49;19.20;52.00
42135;DHT22;28312;43.460;11.810;2023-04-24T17:11:53;19.10;52.10
42135;DHT22;28312;43.460;11.810;2023-04-24T17:15:57;19.00;52.10
42135;DHT22;28312;43.460;11.810;2023-04-24T17:20:01;18.90;52.10
42135;DHT22;28312;43.460;11.810;2023-04-24T17:24:23;18.70;52.20
42135;DHT22;28312;43.460;11.810;2023-04-24T17:28:29;18.60;52.20
42135;DHT22;28312;43.460;11.810;2023-04-24T17:32:33;18.50;52.20
42135;DHT22;28312;43.460;11.810;2023-04-24T17:36:37;18.40;52.20
42135;DHT22;28312;43.460;11.810;2023-04-24T17:40:41;18.20;52.30
42135;DHT22;28312;43.460;11.810;2023-04-24T17:44:45;18.10;52.40
42135;DHT22;28312;43.460;11.810;2023-04-24T17:48:49;17.90;52.30
42135;DHT22;28312;43.460;11.810;2023-04-24T17:52:54;17.80;52.30
42135;DHT22;28312;43.460;11.810;2023-04-24T17:56:58;17.70;52.30
42135;DHT22;28312;43.460;11.810;2023-04-24T18:01:01;17.60;52.40
42135;DHT22;28312;43.460;11.810;2023-04-24T18:05:05;17.50;52.40
42135;DHT22;28312;43.460;11.810;2023-04-24T18:09:09;17.40;52.40
42135;DHT22;28312;43.460;11.810;2023-04-24T18:13:12;17.40;52.40
42135;DHT22;28312;43.460;11.810;2023-04-24T18:17:17;17.30;52.30
42135;DHT22;28312;43.460;11.810;2023-04-24T18:21:20;17.20;52.30
42135;DHT22;28312;43.460;11.810;2023-04-24T18:25:25;17.20;52.40
42135;DHT22;28312;43.460;11.810;2023-04-24T18:29:29;17.00;52.50
42135;DHT22;28312;43.460;11.810;2023-04-24T18:33:33;16.80;52.80
42135;DHT22;28312;43.460;11.810;2023-04-24T18:37:36;16.60;53.20
42135;DHT22;28312;43.460;11.810;2023-04-24T18:41:40;16.50;53.30
42135;DHT22;28312;43.460;11.810;2023-04-24T18:45:43;16.30;53.40
42135;DHT22;28312;43.460;11.810;2023-04-24T18:49:47;16.20;53.60
42135;DHT22;28312;43.460;11.810;2023-04-24T18:53:50;16.20;53.70
42135;DHT22;28312;43.460;11.810;2023-04-24T18:57:54;16.10;53.80
42135;DHT22;28312;43.460;11.810;2023-04-24T19:01:58;16.00;54.00
42135;DHT22;28312;43.460;11.810;2023-04-24T19:06:02;15.90;54.30
42135;DHT22;28312;43.460;11.810;2023-04-24T19:10:06;15.90;54.90
42135;DHT22;28312;43.460;11.810;2023-04-24T19:14:09;15.80;54.80
42135;DHT22;28312;43.460;11.810;2023-04-24T19:18:13;15.80;54.90
42135;DHT22;28312;43.460;11.810;2023-04-24T19:22:19;15.80;54.70
42135;DHT22;28312;43.460;11.810;2023-04-24T19:26:23;15.70;54.80
42135;DHT22;28312;43.460;11.810;2023-04-24T19:30:28;15.70;55.10
42135;DHT22;28312;43.460;11.810;2023-04-24T19:34:31;15.70;55.20
42135;DHT22;28312;43.460;11.810;2023-04-24T19:38:36;15.70;55.20
42135;DHT22;28312;43.460;11.810;2023-04-24T19:42:40;15.70;55.10
42135;DHT22;28312;43.460;11.810;2023-04-24T19:46:46;15.50;54.90
42135;DHT22;28312;43.460;11.810;2023-04-24T19:50:53;15.30;54.70
42135;DHT22;28312;43.460;11.810;2023-04-24T19:54:57;15.10;54.60
42135;DHT22;28312;43.460;11.810;2023-04-24T19:59:02;14.90;54.70
42135;DHT22;28312;43.460;11.810;2023-04-24T20:03:06;14.70;54.90
42135;DHT22;28312;43.460;11.810;2023-04-24T20:07:10;14.50;55.00
42135;DHT22;28312;43.460;11.810;2023-04-24T20:11:15;14.40;55.20
42135;DHT22;28312;43.460;11.810;2023-04-24T20:15:19;14.20;55.60
42135;DHT22;28312;43.460;11.810;2023-04-24T20:19:22;14.20;56.00
42135;DHT22;28312;43.460;11.810;2023-04-24T20:23:27;14.30;56.30
42135;DHT22;28312;43.460;11.810;2023-04-24T20:27:30;14.30;56.40
42135;DHT22;28312;43.460;11.810;2023-04-24T20:31:34;14.50;56.30
42135;DHT22;28312;43.460;11.810;2023-04-24T20:35:38;14.50;56.30
42135;DHT22;28312;43.460;11.810;2023-04-24T20:39:44;14.60;56.20
42135;DHT22;28312;43.460;11.810;2023-04-24T20:43:48;14.60;56.00
42135;DHT22;28312;43.460;11.810;2023-04-24T20:47:52;14.50;55.90
42135;DHT22;28312;43.460;11.810;2023-04-24T20:51:55;14.40;55.80
42135;DHT22;28312;43.460;11.810;2023-04-24T20:56:01;14.20;55.80
42135;DHT22;28312;43.460;11.810;2023-04-24T21:00:05;14.00;55.90
42135;DHT22;28312;43.460;11.810;2023-04-24T21:04:10;13.70;56.20
42135;DHT22;28312;43.460;11.810;2023-04-24T21:08:14;13.60;56.10
42135;DHT22;28312;43.460;11.810;2023-04-24T21:12:19;13.30;56.30
42135;DHT22;28312;43.460;11.810;2023-04-24T21:16:22;13.10;56.50
42135;DHT22;28312;43.460;11.810;2023-04-24T21:20:26;13.00;56.90
42135;DHT22;28312;43.460;11.810;2023-04-24T21:24:30;12.90;57.10
42135;DHT22;28312;43.460;11.810;2023-04-24T21:28:33;12.90;57.30
42135;DHT22;28312;43.460;11.810;2023-04-24T21:32:37;12.90;57.40
42135;DHT22;28312;43.460;11.810;2023-04-24T21:36:42;12.90;57.40
42135;DHT22;28312;43.460;11.810;2023-04-24T21:40:46;12.90;57.50
42135;DHT22;28312;43.460;11.810;2023-04-24T21:44:50;13.00;57.50
42135;DHT22;28312;43.460;11.810;2023-04-24T21:48:54;12.80;57.30
42135;DHT22;28312;43.460;11.810;2023-04-24T21:52:57;12.70;57.40
42135;DHT22;28312;43.460;11.810;2023-04-24T21:57:01;12.60;57.20
42135;DHT22;28312;43.460;11.810;2023-04-24T22:01:05;12.40;57.10
42135;DHT22;28312;43.460;11.810;2023-04-24T22:05:08;12.10;57.50
42135;DHT22;28312;43.460;11.810;2023-04-24T22:09:18;11.90;57.40
42135;DHT22;28312;43.460;11.810;2023-04-24T22:13:21;11.60;57.80
42135;DHT22;28312;43.460;11.810;2023-04-24T22:17:25;11.40;58.00
42135;DHT22;28312;43.460;11.810;2023-04-24T22:21:29;11.20;58.30
42135;DHT22;28312;43.460;11.810;2023-04-24T22:25:33;11.20;58.50
42135;DHT22;28312;43.460;11.810;2023-04-24T22:29:37;11.10;58.40
42135;DHT22;28312;43.460;11.810;2023-04-24T22:33:44;11.00;58.40
42135;DHT22;28312;43.460;11.810;2023-04-24T22:37:54;10.80;58.60
42135;DHT22;28312;43.460;11.810;2023-04-24T22:41:57;10.70;58.70
42135;DHT22;28312;43.460;11.810;2023-04-24T22:46:01;10.70;58.60
42135;DHT22;28312;43.460;11.810;2023-04-24T22:50:06;10.60;58.90
42135;DHT22;28312;43.460;11.810;2023-04-24T22:54:10;10.60;59.00
42135;DHT22;28312;43.460;11.810;2023-04-24T22:58:14;10.50;58.90
42135;DHT22;28312;43.460;11.810;2023-04-24T23:02:17;10.60;59.10
42135;DHT22;28312;43.460;11.810;2023-04-24T23:06:21;10.70;59.50
42135;DHT22;28312;43.460;11.810;2023-04-24T23:10:25;10.80;59.50
42135;DHT22;28312;43.460;11.810;2023-04-24T23:14:28;10.80;59.60
42135;DHT22;28312;43.460;11.810;2023-04-24T23:18:32;10.90;59.60
42135;DHT22;28312;43.460;11.810;2023-04-24T23:22:35;11.00;59.80
42135;DHT22;28312;43.460;11.810;2023-04-24T23:26:39;11.10;59.90
42135;DHT22;28312;43.460;11.810;2023-04-24T23:30:43;11.10;59.90
42135;DHT22;28312;43.460;11.810;2023-04-24T23:34:46;11.00;59.70
42135;DHT22;28312;43.460;11.810;2023-04-24T23:38:51;10.90;59.50
42135;DHT22;28312;43.460;11.810;2023-04-24T23:42:55;10.80;59.50
42135;DHT22;28312;43.460;11.810;2023-04-24T23:47:09;10.60;59.60
42135;DHT22;28312;43.460;11.810;2023-04-24T23:51:12;10.50;59.70
42135;DHT22;28312;43.460;11.810;2023-04-24T23:55:16;10.40;59.70
42135;DHT22;28312;43.460;11.810;2023-04-24T23:59:20;10.30;59.70
